createdAt,value
2023-07-23T00:06:11.585Z,100213.22
2023-07-23T00:16:15.929Z,100201.72
2023-07-23T00:26:18.885Z,100196.06
2023-07-23T00:36:23.075Z,100179.59
2023-07-23T00:46:26.289Z,100162.75
2023-07-23T00:56:31.517Z,100154.06
2023-07-23T01:06:35.980Z,100150.72
2023-07-23T01:16:40.830Z,100134.66
2023-07-23T01:26:45.243Z,100122.66
2023-07-23T01:36:49.117Z,100117.31
2023-07-23T01:46:53.462Z,100099.78
2023-07-23T01:56:57.789Z,100100.09
2023-07-23T02:07:02.223Z,100090.16
2023-07-23T02:17:06.320Z,100068.53
2023-07-23T02:27:11.162Z,100064.06
2023-07-23T02:37:14.465Z,100058.22
2023-07-23T02:47:18.762Z,100048.72
2023-07-23T02:57:21.856Z,100050.94
2023-07-23T03:07:26.351Z,100051.44
2023-07-23T03:17:29.418Z,100052.06
2023-07-23T03:27:33.904Z,100048.22
2023-07-23T03:37:37.458Z,100054.06
2023-07-23T03:47:41.953Z,100047.09
2023-07-23T03:57:45.100Z,100041.63
2023-07-23T04:07:49.599Z,100042.69
2023-07-23T04:17:52.779Z,100039.56
2023-07-23T04:27:57.275Z,100034.84
2023-07-23T04:38:00.382Z,100041.56
2023-07-23T04:48:04.925Z,100035.06
2023-07-23T04:58:07.981Z,100019.81
2023-07-23T05:08:12.557Z,100025.66
2023-07-23T05:18:15.596Z,100021.50
2023-07-23T05:28:19.895Z,100010.81
2023-07-23T05:38:22.946Z,100011.47
2023-07-23T05:48:27.541Z,100018.63
2023-07-23T05:58:31.783Z,100015.94
2023-07-23T06:08:36.390Z,100023.69
2023-07-23T06:18:39.458Z,100018.25
2023-07-23T06:28:43.869Z,100009.69
2023-07-23T06:38:47.693Z,100007.47
2023-07-23T06:48:52.247Z,100015.72
2023-07-23T06:58:55.382Z,100025.88
2023-07-23T07:08:59.805Z,100045.94
2023-07-23T07:19:02.960Z,100047.59
2023-07-23T07:29:07.464Z,100055.91
2023-07-23T07:39:10.824Z,100059.00
2023-07-23T07:49:15.182Z,100056.00
2023-07-23T07:59:18.949Z,100060.50
2023-07-23T08:09:26.040Z,100064.03
2023-07-23T08:19:30.063Z,100065.25
2023-07-23T08:29:39.487Z,100068.38
2023-07-23T08:39:43.729Z,100082.16
2023-07-23T08:49:49.207Z,100084.75
2023-07-23T08:59:53.048Z,100088.78
2023-07-23T09:09:59.618Z,100079.06
2023-07-23T09:20:02.718Z,100088.78
2023-07-23T09:30:08.236Z,100080.94
2023-07-23T09:40:12.704Z,100082.97
2023-07-23T09:50:18.963Z,100073.84
2023-07-23T10:00:22.805Z,100076.06
2023-07-23T10:10:27.468Z,100082.00
2023-07-23T10:20:33.608Z,100097.69
2023-07-23T10:30:39.094Z,100115.38
2023-07-23T10:40:49.343Z,100116.19
2023-07-23T10:51:09.094Z,100096.06
2023-07-23T11:01:14.096Z,100094.69
2023-07-23T11:11:19.765Z,100094.53
2023-07-23T11:21:22.677Z,100087.88
2023-07-23T11:31:27.364Z,100077.19
2023-07-23T11:41:38.521Z,100081.94
2023-07-23T11:51:43.658Z,100066.56
2023-07-23T12:01:47.467Z,100063.50
2023-07-23T12:11:52.833Z,100070.69
2023-07-23T12:21:59.084Z,100068.47
2023-07-23T12:32:14.300Z,100061.72
2023-07-23T12:42:17.405Z,100063.50
2023-07-23T12:52:22.470Z,100064.72
2023-07-23T13:02:25.746Z,100053.91
2023-07-23T13:12:29.945Z,100048.03
2023-07-23T13:22:33.598Z,100042.41
2023-07-23T13:32:37.810Z,100036.03
2023-07-23T13:42:41.013Z,100036.31
2023-07-23T13:52:45.762Z,100017.06
2023-07-23T14:02:48.936Z,100038.50
2023-07-23T14:12:55.532Z,100033.81
2023-07-23T14:22:58.355Z,100025.63
2023-07-23T14:33:02.665Z,100039.59
2023-07-23T14:43:05.835Z,100031.13
2023-07-23T14:53:10.791Z,100038.44
2023-07-23T15:03:17.308Z,100051.84
2023-07-23T15:13:22.456Z,100039.88
2023-07-23T15:23:26.108Z,100038.31
2023-07-23T15:33:30.853Z,100013.53
2023-07-23T15:43:37.442Z,100008.91
2023-07-23T15:53:41.793Z,100008.16
2023-07-23T16:03:44.939Z,100003.28
2023-07-23T16:13:49.707Z,99994.34
2023-07-23T16:23:52.926Z,99982.53
2023-07-23T16:33:57.878Z,99976.22
2023-07-23T16:44:03.572Z,99972.13
2023-07-23T16:54:08.586Z,99970.94
2023-07-23T17:04:11.704Z,99965.44
2023-07-23T17:14:16.129Z,99968.06
2023-07-23T17:24:19.503Z,99955.78
2023-07-23T17:34:23.801Z,99965.66
2023-07-23T17:44:26.970Z,99960.69
2023-07-23T17:54:31.813Z,99958.69
2023-07-23T18:04:34.925Z,99952.41
2023-07-23T18:14:39.706Z,99946.91
2023-07-23T18:24:44.049Z,99943.38
2023-07-23T18:34:48.545Z,99938.91
2023-07-23T18:44:51.798Z,99936.47
2023-07-23T18:54:56.246Z,99940.34
2023-07-23T19:04:59.737Z,99937.41
2023-07-23T19:15:04.667Z,99942.25
2023-07-23T19:25:08.249Z,99944.75
2023-07-23T19:35:12.714Z,99954.66
2023-07-23T19:45:17.312Z,99959.13
2023-07-23T19:55:22.125Z,99958.38
2023-07-23T20:05:25.160Z,99961.19
2023-07-23T20:15:29.677Z,99965.41
2023-07-23T20:25:33.064Z,99969.06
2023-07-23T20:35:38.926Z,99978.75
2023-07-23T20:45:42.008Z,99980.03
2023-07-23T20:55:46.506Z,99984.69
2023-07-23T21:05:49.658Z,99980.19
2023-07-23T21:15:56.262Z,99972.25
2023-07-23T21:25:59.428Z,99933.13
2023-07-23T21:36:03.847Z,99925.09
2023-07-23T21:46:06.935Z,99915.94
2023-07-23T21:56:11.222Z,99908.69
2023-07-23T22:06:14.481Z,99894.63
2023-07-23T22:16:18.955Z,99893.81
2023-07-23T22:26:22.523Z,99892.94
2023-07-23T22:36:28.746Z,99883.34
2023-07-23T22:46:33.269Z,99890.66
2023-07-23T22:56:38.719Z,99870.97
2023-07-23T23:06:42.105Z,99858.34
2023-07-23T23:16:46.693Z,99848.19
2023-07-23T23:26:49.592Z,99827.41
2023-07-23T23:36:53.997Z,99834.63
2023-07-23T23:46:57.050Z,99829.97
2023-07-23T23:57:02.763Z,99820.38
